Time;durP1;ratioP1;P1;durP2;ratioP2;P2;SDS_P1;SDS_P2;PMS_P1;PMS_P2;Temp;Humidity;BMP_temperature;BMP_pressure;BME280_temperature;BME280_humidity;BME280_pressure;Samples;Min_cycle;Max_cycle;Signal;HPM_P1;HPM_P2
2024/03/03 00:00:13;;;;;;;7.32;5.10;;;;;;;;;;5093801;28;20474;-65
2024/03/03 00:02:39;;;;;;;4.78;3.78;;;;;;;;;;5094018;28;20480;-65
2024/03/03 00:05:06;;;;;;;7.85;6.55;;;;;;;;;;5076999;28;20032;-66
2024/03/03 00:07:32;;;;;;;6.60;5.03;;;;;;;;;;5089720;28;20463;-66
2024/03/03 00:09:58;;;;;;;8.82;5.68;;;;;;;;;;5078197;28;20089;-65
2024/03/03 00:12:24;;;;;;;6.10;4.63;;;;;;;;;;5089302;28;20024;-65
2024/03/03 00:14:50;;;;;;;6.72;4.32;;;;;;;;;;5093429;28;20028;-65
2024/03/03 00:17:16;;;;;;;11.65;5.63;;;;;;;;;;5074309;28;20430;-65
2024/03/03 00:19:43;;;;;;;7.75;5.93;;;;;;;;;;5071017;28;20115;-66
2024/03/03 00:22:09;;;;;;;6.75;5.88;;;;;;;;;;5096935;28;20051;-67
2024/03/03 00:24:35;;;;;;;9.27;6.03;;;;;;;;;;5089198;28;20028;-65
2024/03/03 00:27:01;;;;;;;6.97;4.78;;;;;;;;;;5095280;28;20027;-65
2024/03/03 00:29:27;;;;;;;12.13;6.15;;;;;;;;;;5094771;28;20031;-65
2024/03/03 00:31:54;;;;;;;11.77;7.20;;;;;;;;;;5097564;28;20042;-66
2024/03/03 00:34:20;;;;;;;14.15;5.82;;;;;;;;;;5094003;28;20118;-66
2024/03/03 00:36:46;;;;;;;7.53;5.25;;;;;;;;;;5082353;28;20044;-65
2024/03/03 00:39:12;;;;;;;7.03;4.65;;;;;;;;;;5099498;28;20051;-65
2024/03/03 00:41:38;;;;;;;9.85;5.32;;;;;;;;;;5091885;27;20024;-65
2024/03/03 00:44:05;;;;;;;11.15;5.38;;;;;;;;;;5092899;28;20662;-65
2024/03/03 00:46:31;;;;;;;9.27;4.68;;;;;;;;;;5086824;28;20023;-66
2024/03/03 00:48:57;;;;;;;7.93;4.80;;;;;;;;;;5091688;28;20365;-65
2024/03/03 00:51:23;;;;;;;7.80;4.75;;;;;;;;;;5092772;28;20039;-66
2024/03/03 00:53:49;;;;;;;15.25;7.65;;;;;;;;;;5094411;28;20027;-65
2024/03/03 00:56:15;;;;;;;5.80;4.05;;;;;;;;;;5082124;28;20032;-66
2024/03/03 00:58:41;;;;;;;7.07;4.60;;;;;;;;;;5092490;28;20017;-68
2024/03/03 01:01:08;;;;;;;6.30;5.20;;;;;;;;;;5094096;28;20031;-66
2024/03/03 01:03:34;;;;;;;13.30;5.70;;;;;;;;;;5090525;28;20044;-65
2024/03/03 01:06:06;;;;;;;4.45;4.00;;;;;;;;;;5085090;28;20055;-65
2024/03/03 01:08:32;;;;;;;8.77;5.20;;;;;;;;;;5095070;28;20066;-65
2024/03/03 01:10:59;;;;;;;5.60;4.55;;;;;;;;;;5091300;28;20146;-66
2024/03/03 01:13:25;;;;;;;16.00;6.20;;;;;;;;;;5096563;28;20032;-65
2024/03/03 01:15:51;;;;;;;10.45;5.85;;;;;;;;;;5094318;28;20019;-65
2024/03/03 01:18:18;;;;;;;10.93;5.47;;;;;;;;;;5090023;28;20392;-65
2024/03/03 01:20:44;;;;;;;10.18;4.93;;;;;;;;;;5095901;28;20020;-65
2024/03/03 01:23:12;;;;;;;6.40;4.05;;;;;;;;;;5095378;28;20030;-66
2024/03/03 01:25:38;;;;;;;4.82;4.30;;;;;;;;;;5101769;28;20031;-65
2024/03/03 01:28:04;;;;;;;8.43;4.70;;;;;;;;;;5091069;28;20078;-65
2024/03/03 01:30:30;;;;;;;8.68;5.25;;;;;;;;;;5100731;28;20662;-65
2024/03/03 01:32:57;;;;;;;6.55;5.07;;;;;;;;;;5101450;28;20019;-65
2024/03/03 01:35:26;;;;;;;15.60;5.45;;;;;;;;;;5091372;28;20355;-65
2024/03/03 01:37:52;;;;;;;7.85;5.07;;;;;;;;;;5075070;28;20040;-65
2024/03/03 01:40:19;;;;;;;5.90;4.53;;;;;;;;;;5067623;28;20056;-65
2024/03/03 01:42:45;;;;;;;7.20;4.13;;;;;;;;;;5072352;28;20547;-65
2024/03/03 01:45:18;;;;;;;13.50;4.40;;;;;;;;;;5077749;28;20065;-68
2024/03/03 01:47:45;;;;;;;6.43;5.78;;;;;;;;;;5080684;28;20028;-68
2024/03/03 01:50:11;;;;;;;4.90;4.28;;;;;;;;;;5080829;28;20489;-69
2024/03/03 01:52:37;;;;;;;11.88;5.75;;;;;;;;;;5078221;28;20433;-68
2024/03/03 01:55:04;;;;;;;8.80;5.50;;;;;;;;;;5076371;28;20063;-70
2024/03/03 01:57:31;;;;;;;11.25;5.60;;;;;;;;;;5077472;28;20527;-69
2024/03/03 01:59:58;;;;;;;9.48;5.28;;;;;;;;;;5076903;28;20071;-69
2024/03/03 02:02:27;;;;;;;7.68;5.20;;;;;;;;;;5070509;28;20029;-70
2024/03/03 02:04:53;;;;;;;10.32;5.38;;;;;;;;;;5070905;28;20024;-69
2024/03/03 02:07:21;;;;;;;6.15;4.97;;;;;;;;;;5082032;28;20032;-69
2024/03/03 02:09:47;;;;;;;10.98;4.63;;;;;;;;;;5074956;28;20035;-69
2024/03/03 02:12:13;;;;;;;9.20;5.07;;;;;;;;;;5077566;28;20468;-69
2024/03/03 02:14:40;;;;;;;5.85;4.30;;;;;;;;;;5077604;28;20059;-69
2024/03/03 02:17:06;;;;;;;6.32;4.53;;;;;;;;;;5073767;28;20024;-69
2024/03/03 02:19:37;;;;;;;5.35;4.10;;;;;;;;;;5071774;28;20116;-68
2024/03/03 02:22:03;;;;;;;4.65;3.10;;;;;;;;;;5069468;28;20064;-69
2024/03/03 02:24:29;;;;;;;9.13;4.65;;;;;;;;;;5078428;28;20031;-69
2024/03/03 02:26:56;;;;;;;5.97;4.28;;;;;;;;;;5080959;28;21505;-69
2024/03/03 02:29:22;;;;;;;5.53;4.20;;;;;;;;;;5077153;28;20027;-68
2024/03/03 02:31:49;;;;;;;5.50;4.00;;;;;;;;;;5080774;28;20446;-68
2024/03/03 02:34:15;;;;;;;5.22;4.03;;;;;;;;;;5070029;28;20122;-68
2024/03/03 02:36:41;;;;;;;10.48;4.97;;;;;;;;;;5082174;28;20895;-68
2024/03/03 02:39:07;;;;;;;7.03;3.75;;;;;;;;;;5093836;27;20119;-68
2024/03/03 02:41:33;;;;;;;5.95;3.97;;;;;;;;;;5099950;27;20027;-69
2024/03/03 02:44:00;;;;;;;3.65;3.17;;;;;;;;;;5090906;28;20031;-68
2024/03/03 02:46:26;;;;;;;10.43;3.40;;;;;;;;;;5094119;28;20046;-69
2024/03/03 02:48:53;;;;;;;14.40;4.60;;;;;;;;;;5092222;28;20047;-69
2024/03/03 02:51:19;;;;;;;4.07;3.38;;;;;;;;;;5097357;28;20031;-68
2024/03/03 02:53:45;;;;;;;6.78;4.22;;;;;;;;;;5097879;28;20055;-68
2024/03/03 02:56:11;;;;;;;4.80;3.22;;;;;;;;;;5090077;28;20110;-69
2024/03/03 02:58:37;;;;;;;4.43;3.13;;;;;;;;;;5102872;28;20326;-68
2024/03/03 03:01:04;;;;;;;4.30;3.00;;;;;;;;;;5094086;28;20119;-68
2024/03/03 03:03:31;;;;;;;3.83;2.83;;;;;;;;;;5100187;28;20404;-68
2024/03/03 03:05:57;;;;;;;3.88;2.55;;;;;;;;;;5087694;28;20040;-68
2024/03/03 03:08:23;;;;;;;3.53;2.72;;;;;;;;;;5077987;28;20512;-68
2024/03/03 03:10:49;;;;;;;3.70;3.40;;;;;;;;;;5092358;28;20039;-68
2024/03/03 03:13:15;;;;;;;4.05;2.63;;;;;;;;;;5078847;28;20032;-68
2024/03/03 03:15:42;;;;;;;5.28;3.00;;;;;;;;;;5095341;28;20378;-68
2024/03/03 03:18:08;;;;;;;3.05;2.75;;;;;;;;;;5095095;28;20761;-69
2024/03/03 03:20:34;;;;;;;2.90;2.60;;;;;;;;;;5095966;28;20028;-69
2024/03/03 03:23:00;;;;;;;4.18;3.15;;;;;;;;;;5089885;28;20031;-68
2024/03/03 03:25:27;;;;;;;11.38;3.65;;;;;;;;;;5091751;28;20072;-68
2024/03/03 03:27:53;;;;;;;3.22;2.92;;;;;;;;;;5095867;28;20050;-69
2024/03/03 03:30:19;;;;;;;3.55;2.97;;;;;;;;;;5093808;28;20401;-68
2024/03/03 03:32:45;;;;;;;3.28;3.00;;;;;;;;;;5090018;28;20130;-68
2024/03/03 03:35:12;;;;;;;4.13;3.40;;;;;;;;;;5094653;28;20024;-68
2024/03/03 03:37:38;;;;;;;4.22;3.35;;;;;;;;;;5095688;28;20627;-69
2024/03/03 03:40:09;;;;;;;3.35;2.60;;;;;;;;;;5098855;28;20031;-69
2024/03/03 03:42:35;;;;;;;3.75;3.17;;;;;;;;;;5100920;28;20158;-69
2024/03/03 03:45:05;;;;;;;4.60;3.20;;;;;;;;;;5088433;28;20027;-69
2024/03/03 03:47:31;;;;;;;4.07;3.50;;;;;;;;;;5102224;28;20081;-65
2024/03/03 03:49:57;;;;;;;6.93;3.55;;;;;;;;;;5091369;28;20272;-64
2024/03/03 03:52:24;;;;;;;4.35;3.50;;;;;;;;;;5095394;28;20077;-66
2024/03/03 03:54:50;;;;;;;6.03;3.80;;;;;;;;;;5096006;28;20036;-65
2024/03/03 03:57:16;;;;;;;6.72;4.22;;;;;;;;;;5082886;28;20047;-69
2024/03/03 03:59:42;;;;;;;6.38;4.10;;;;;;;;;;5103769;28;20115;-69
2024/03/03 04:02:09;;;;;;;5.25;3.47;;;;;;;;;;5103848;28;20104;-69
2024/03/03 04:04:35;;;;;;;4.90;3.13;;;;;;;;;;5113896;28;20150;-69
2024/03/03 04:07:04;;;;;;;4.53;3.60;;;;;;;;;;5100706;28;20027;-69
2024/03/03 04:09:31;;;;;;;4.65;4.07;;;;;;;;;;5101485;28;20028;-68
2024/03/03 04:11:58;;;;;;;5.88;3.67;;;;;;;;;;5100736;28;20105;-69
2024/03/03 04:14:24;;;;;;;10.45;4.47;;;;;;;;;;5100248;27;20072;-69
2024/03/03 04:16:50;;;;;;;7.10;3.63;;;;;;;;;;5099679;28;20035;-69
2024/03/03 04:19:17;;;;;;;6.03;4.22;;;;;;;;;;5096522;28;20028;-69
2024/03/03 04:21:43;;;;;;;5.22;3.67;;;;;;;;;;5103694;28;20040;-69
2024/03/03 04:24:10;;;;;;;11.10;4.07;;;;;;;;;;5096372;28;20554;-68
2024/03/03 04:26:37;;;;;;;5.30;4.60;;;;;;;;;;5094069;28;20131;-69
2024/03/03 04:29:03;;;;;;;6.78;4.40;;;;;;;;;;5107025;28;20028;-69
2024/03/03 04:31:30;;;;;;;6.60;4.80;;;;;;;;;;5082300;28;20167;-69
2024/03/03 04:33:56;;;;;;;5.97;4.63;;;;;;;;;;5103517;27;20035;-69
2024/03/03 04:36:22;;;;;;;6.05;4.68;;;;;;;;;;5083179;28;20040;-69
2024/03/03 04:38:49;;;;;;;4.85;3.58;;;;;;;;;;5081320;28;20534;-69
2024/03/03 04:41:15;;;;;;;6.00;3.88;;;;;;;;;;5074919;28;20051;-68
2024/03/03 04:43:42;;;;;;;5.72;4.03;;;;;;;;;;5074170;28;20440;-68
2024/03/03 04:46:08;;;;;;;5.38;3.95;;;;;;;;;;5079577;28;20024;-68
2024/03/03 04:48:35;;;;;;;4.57;3.88;;;;;;;;;;5075562;28;20024;-69
2024/03/03 04:51:01;;;;;;;5.72;3.50;;;;;;;;;;5081601;28;20539;-68
2024/03/03 04:53:27;;;;;;;4.63;3.38;;;;;;;;;;5081200;28;20031;-69
2024/03/03 04:55:53;;;;;;;3.83;3.30;;;;;;;;;;5085357;28;20036;-68
2024/03/03 04:58:20;;;;;;;4.15;3.28;;;;;;;;;;5078502;28;20054;-68
2024/03/03 05:00:46;;;;;;;4.22;3.83;;;;;;;;;;5083678;28;20031;-68
2024/03/03 05:03:12;;;;;;;4.88;4.40;;;;;;;;;;5075981;28;20028;-69
2024/03/03 05:05:38;;;;;;;7.40;5.38;;;;;;;;;;5069947;28;20032;-68
2024/03/03 05:08:04;;;;;;;4.40;3.42;;;;;;;;;;5073089;28;20024;-68
2024/03/03 05:10:31;;;;;;;5.85;4.18;;;;;;;;;;5075655;28;20024;-68
2024/03/03 05:12:57;;;;;;;4.07;3.55;;;;;;;;;;5072930;28;20649;-68
2024/03/03 05:15:23;;;;;;;4.13;3.20;;;;;;;;;;5078595;28;20031;-69
2024/03/03 05:17:49;;;;;;;5.85;3.90;;;;;;;;;;5079507;28;20034;-68
2024/03/03 05:20:15;;;;;;;5.65;3.42;;;;;;;;;;5076429;28;20032;-68
2024/03/03 05:22:42;;;;;;;7.25;3.25;;;;;;;;;;5085153;28;20017;-68
2024/03/03 05:25:10;;;;;;;4.30;3.90;;;;;;;;;;5076144;28;20300;-68
2024/03/03 05:27:36;;;;;;;4.93;3.17;;;;;;;;;;5074039;28;20028;-68
2024/03/03 05:30:03;;;;;;;4.50;3.00;;;;;;;;;;5078680;28;20044;-68
2024/03/03 05:32:29;;;;;;;6.55;3.15;;;;;;;;;;5082608;28;20043;-70
2024/03/03 05:34:55;;;;;;;5.28;3.03;;;;;;;;;;5073360;28;20028;-68
2024/03/03 05:37:23;;;;;;;4.95;3.47;;;;;;;;;;5081301;28;20062;-69
2024/03/03 05:39:49;;;;;;;4.55;2.83;;;;;;;;;;5070709;28;20032;-68
2024/03/03 05:42:17;;;;;;;4.95;4.32;;;;;;;;;;5077132;28;20302;-68
2024/03/03 05:44:43;;;;;;;5.07;3.70;;;;;;;;;;5080545;28;20459;-68
2024/03/03 05:47:09;;;;;;;7.00;4.40;;;;;;;;;;5080859;28;20059;-69
2024/03/03 05:49:36;;;;;;;6.13;3.58;;;;;;;;;;5074380;28;20032;-69
2024/03/03 05:52:03;;;;;;;10.60;4.35;;;;;;;;;;5073993;28;20039;-69
2024/03/03 05:54:29;;;;;;;4.30;3.30;;;;;;;;;;5078845;28;20076;-69
2024/03/03 05:56:55;;;;;;;6.70;4.15;;;;;;;;;;5067716;28;20095;-68
2024/03/03 05:59:22;;;;;;;5.82;4.28;;;;;;;;;;5073237;28;20481;-68
2024/03/03 06:01:48;;;;;;;3.78;3.35;;;;;;;;;;5082996;28;20109;-69
2024/03/03 06:04:17;;;;;;;4.22;3.17;;;;;;;;;;5081033;28;20469;-68
2024/03/03 06:06:44;;;;;;;5.10;4.22;;;;;;;;;;5075625;28;20024;-68
2024/03/03 06:09:12;;;;;;;3.50;3.10;;;;;;;;;;5073981;28;20036;-68
2024/03/03 06:11:41;;;;;;;4.40;3.00;;;;;;;;;;5078623;28;20036;-68
2024/03/03 06:14:08;;;;;;;3.65;3.17;;;;;;;;;;5078155;28;20035;-68
2024/03/03 06:16:35;;;;;;;2.80;2.30;;;;;;;;;;5074824;28;20020;-69
2024/03/03 06:19:02;;;;;;;5.00;2.88;;;;;;;;;;5076392;28;20189;-68
2024/03/03 06:21:28;;;;;;;2.92;2.38;;;;;;;;;;5077704;28;20032;-69
2024/03/03 06:23:55;;;;;;;5.93;3.60;;;;;;;;;;5070366;28;20032;-68
2024/03/03 06:26:21;;;;;;;3.85;3.15;;;;;;;;;;5075516;28;20056;-69
2024/03/03 06:28:48;;;;;;;3.45;2.67;;;;;;;;;;5076344;28;20046;-68
2024/03/03 06:31:14;;;;;;;7.97;3.17;;;;;;;;;;5076514;28;20051;-69
2024/03/03 06:33:40;;;;;;;4.47;3.05;;;;;;;;;;5076875;28;20488;-69
2024/03/03 06:36:06;;;;;;;12.95;3.58;;;;;;;;;;5084873;28;20036;-69
2024/03/03 06:38:32;;;;;;;3.40;2.72;;;;;;;;;;5098466;28;20027;-69
2024/03/03 06:40:58;;;;;;;3.20;2.17;;;;;;;;;;5098204;28;20700;-68
2024/03/03 06:43:24;;;;;;;5.00;3.53;;;;;;;;;;5099605;28;20141;-69
2024/03/03 06:45:51;;;;;;;5.45;3.33;;;;;;;;;;5097328;28;20432;-69
2024/03/03 06:48:17;;;;;;;3.67;2.90;;;;;;;;;;5100643;28;20524;-69
2024/03/03 06:50:43;;;;;;;10.15;3.80;;;;;;;;;;5093556;27;20063;-69
2024/03/03 06:53:10;;;;;;;4.00;2.78;;;;;;;;;;5099203;28;20031;-72
2024/03/03 06:55:38;;;;;;;4.80;3.58;;;;;;;;;;5085039;28;20429;-69
2024/03/03 06:58:04;;;;;;;4.40;3.08;;;;;;;;;;5098948;28;20028;-69
2024/03/03 07:00:30;;;;;;;3.40;3.13;;;;;;;;;;5093356;28;20028;-69
2024/03/03 07:03:03;;;;;;;4.15;2.53;;;;;;;;;;5107184;27;20023;-69
2024/03/03 07:05:29;;;;;;;5.45;3.05;;;;;;;;;;5093541;28;20028;-68
2024/03/03 07:07:55;;;;;;;8.20;3.47;;;;;;;;;;5095278;28;20073;-68
2024/03/03 07:10:21;;;;;;;11.98;5.20;;;;;;;;;;5092732;28;20020;-68
2024/03/03 07:12:48;;;;;;;5.82;4.25;;;;;;;;;;5074008;28;20031;-69
2024/03/03 07:15:14;;;;;;;5.32;3.60;;;;;;;;;;5096467;28;20028;-68
2024/03/03 07:17:40;;;;;;;7.22;4.85;;;;;;;;;;5100467;28;20023;-68
2024/03/03 07:20:06;;;;;;;8.60;3.55;;;;;;;;;;5090189;28;20024;-69
2024/03/03 07:22:34;;;;;;;9.68;5.30;;;;;;;;;;5094716;28;20369;-69
2024/03/03 07:25:04;;;;;;;6.25;4.25;;;;;;;;;;5097039;28;20070;-69
2024/03/03 07:27:31;;;;;;;5.88;4.45;;;;;;;;;;5090148;28;20028;-68
2024/03/03 07:29:57;;;;;;;7.03;5.38;;;;;;;;;;5097964;28;20076;-69
2024/03/03 07:32:28;;;;;;;5.15;3.95;;;;;;;;;;5091721;28;20020;-68
2024/03/03 07:34:54;;;;;;;4.80;4.30;;;;;;;;;;5092280;28;20043;-69
2024/03/03 07:37:20;;;;;;;7.00;3.95;;;;;;;;;;5097925;28;20043;-69
2024/03/03 07:39:46;;;;;;;6.85;4.78;;;;;;;;;;5095528;28;20019;-69
2024/03/03 07:42:13;;;;;;;8.13;5.03;;;;;;;;;;5093493;27;20066;-68
2024/03/03 07:44:39;;;;;;;10.63;5.95;;;;;;;;;;5094445;28;20027;-68
2024/03/03 07:47:05;;;;;;;9.05;5.68;;;;;;;;;;5098059;28;20500;-69
2024/03/03 07:49:32;;;;;;;6.30;3.72;;;;;;;;;;5076702;28;20119;-69
2024/03/03 07:51:58;;;;;;;6.45;3.40;;;;;;;;;;5101442;28;20044;-68
2024/03/03 07:54:25;;;;;;;4.32;3.92;;;;;;;;;;5093151;28;20505;-68
2024/03/03 07:56:51;;;;;;;7.25;3.25;;;;;;;;;;5071806;28;20070;-68
2024/03/03 07:59:17;;;;;;;2.88;2.17;;;;;;;;;;5097665;28;20072;-68
2024/03/03 08:01:43;;;;;;;5.93;2.90;;;;;;;;;;5094776;28;20028;-68
2024/03/03 08:04:12;;;;;;;3.08;2.75;;;;;;;;;;5073307;28;20264;-68
2024/03/03 08:06:39;;;;;;;4.32;3.25;;;;;;;;;;5097347;28;20020;-68
2024/03/03 08:09:06;;;;;;;2.97;2.75;;;;;;;;;;5091390;28;20047;-69
2024/03/03 08:11:35;;;;;;;2.88;2.20;;;;;;;;;;5095357;28;20039;-69
2024/03/03 08:14:05;;;;;;;2.90;2.28;;;;;;;;;;5093396;28;20027;-69
2024/03/03 08:16:33;;;;;;;1.65;1.55;;;;;;;;;;5075745;28;20516;-69
2024/03/03 08:18:59;;;;;;;3.47;2.00;;;;;;;;;;5092690;28;20803;-70
2024/03/03 08:21:25;;;;;;;7.32;3.80;;;;;;;;;;5102700;28;20385;-69
2024/03/03 08:23:51;;;;;;;3.42;2.65;;;;;;;;;;5078199;28;20376;-68
2024/03/03 08:26:19;;;;;;;2.80;2.58;;;;;;;;;;5091807;28;20089;-69
2024/03/03 08:28:45;;;;;;;2.97;2.53;;;;;;;;;;5098953;28;20534;-69
2024/03/03 08:31:13;;;;;;;4.53;2.90;;;;;;;;;;5090098;28;20032;-69
2024/03/03 08:33:39;;;;;;;4.22;2.65;;;;;;;;;;5097551;28;20155;-69
2024/03/03 08:36:05;;;;;;;5.18;2.70;;;;;;;;;;5091843;28;20070;-68
2024/03/03 08:38:31;;;;;;;2.60;2.42;;;;;;;;;;5090492;28;20021;-69
2024/03/03 08:40:57;;;;;;;1.73;1.50;;;;;;;;;;5091251;28;20035;-69
2024/03/03 08:43:24;;;;;;;2.83;2.03;;;;;;;;;;5093674;28;20424;-69
2024/03/03 08:45:50;;;;;;;2.28;2.13;;;;;;;;;;5094971;28;20052;-69
2024/03/03 08:48:16;;;;;;;2.00;1.75;;;;;;;;;;5085120;28;20063;-68
2024/03/03 08:50:42;;;;;;;1.85;1.75;;;;;;;;;;5098865;28;20471;-69
2024/03/03 08:53:08;;;;;;;1.67;1.58;;;;;;;;;;5093545;28;20165;-70
2024/03/03 08:55:35;;;;;;;1.92;1.80;;;;;;;;;;5081747;28;20023;-69
2024/03/03 08:58:01;;;;;;;2.25;2.08;;;;;;;;;;5095032;28;20032;-68
2024/03/03 09:00:27;;;;;;;1.90;1.77;;;;;;;;;;5093327;27;20107;-68
2024/03/03 09:02:53;;;;;;;1.70;1.60;;;;;;;;;;5101359;28;20767;-68
2024/03/03 09:05:20;;;;;;;2.17;1.90;;;;;;;;;;5076767;28;20023;-68
2024/03/03 09:07:46;;;;;;;2.03;1.77;;;;;;;;;;5101664;28;20106;-68
2024/03/03 09:10:12;;;;;;;2.38;1.95;;;;;;;;;;5097805;27;20023;-69
2024/03/03 09:12:38;;;;;;;1.80;1.70;;;;;;;;;;5095888;27;20027;-69
2024/03/03 09:15:06;;;;;;;1.95;1.73;;;;;;;;;;5099637;28;20499;-69
2024/03/03 09:17:32;;;;;;;3.03;1.98;;;;;;;;;;5081296;28;20071;-68
2024/03/03 09:19:58;;;;;;;1.70;1.60;;;;;;;;;;5098767;28;20074;-68
2024/03/03 09:22:24;;;;;;;1.77;1.67;;;;;;;;;;5097790;28;20024;-68
2024/03/03 09:24:50;;;;;;;1.58;1.48;;;;;;;;;;5097424;28;20081;-69
2024/03/03 09:27:17;;;;;;;1.73;1.63;;;;;;;;;;5076968;28;20077;-68
2024/03/03 09:29:43;;;;;;;3.17;2.00;;;;;;;;;;5094270;28;20024;-69
2024/03/03 09:32:09;;;;;;;1.80;1.70;;;;;;;;;;5095496;28;20036;-69
2024/03/03 09:34:36;;;;;;;1.70;1.60;;;;;;;;;;5095941;28;20034;-69
2024/03/03 09:37:02;;;;;;;2.45;2.17;;;;;;;;;;5082779;28;20048;-69
2024/03/03 09:39:28;;;;;;;2.72;2.10;;;;;;;;;;5098045;28;20046;-69
2024/03/03 09:41:58;;;;;;;1.90;1.80;;;;;;;;;;5100474;28;20019;-68
2024/03/03 09:44:33;;;;;;;6.82;1.98;;;;;;;;;;5081507;28;20027;-69
2024/03/03 09:46:59;;;;;;;2.03;1.93;;;;;;;;;;5097362;28;20056;-69
2024/03/03 09:49:25;;;;;;;2.30;2.10;;;;;;;;;;5093625;27;21443;-69
2024/03/03 09:51:52;;;;;;;1.98;1.85;;;;;;;;;;5081441;28;20485;-69
2024/03/03 09:54:19;;;;;;;2.13;1.90;;;;;;;;;;5091438;27;20028;-69
2024/03/03 09:56:53;;;;;;;1.67;1.58;;;;;;;;;;5077450;28;20027;-69
2024/03/03 09:59:20;;;;;;;4.72;1.98;;;;;;;;;;5095716;28;20046;-69
2024/03/03 10:01:56;;;;;;;1.88;1.77;;;;;;;;;;5096942;28;20422;-69
2024/03/03 10:04:23;;;;;;;2.17;1.60;;;;;;;;;;5089846;28;20888;-69
2024/03/03 10:06:54;;;;;;;3.17;1.60;;;;;;;;;;5098132;28;20036;-70
2024/03/03 10:09:21;;;;;;;2.40;2.20;;;;;;;;;;5095972;28;20024;-70
2024/03/03 10:11:48;;;;;;;1.83;1.73;;;;;;;;;;5070390;28;20104;-69
2024/03/03 10:14:15;;;;;;;2.10;1.90;;;;;;;;;;5094073;28;20111;-68
2024/03/03 10:16:43;;;;;;;3.33;3.00;;;;;;;;;;5091715;28;20481;-69
2024/03/03 10:19:09;;;;;;;3.47;2.78;;;;;;;;;;5095780;28;20060;-69
2024/03/03 10:21:36;;;;;;;5.18;3.55;;;;;;;;;;5078660;28;20024;-69
2024/03/03 10:24:22;;;;;;;3.95;2.00;;;;;;;;;;5102047;28;20480;-69
2024/03/03 10:26:49;;;;;;;3.90;2.95;;;;;;;;;;5090223;28;20041;-69
2024/03/03 10:29:19;;;;;;;1.80;1.67;;;;;;;;;;5097452;28;20095;-69
2024/03/03 10:31:46;;;;;;;2.72;2.42;;;;;;;;;;5061584;28;20580;-70
2024/03/03 10:34:13;;;;;;;4.15;3.47;;;;;;;;;;5096307;28;20086;-69
2024/03/03 10:36:39;;;;;;;2.10;1.90;;;;;;;;;;5094223;28;20047;-69
2024/03/03 10:39:08;;;;;;;2.35;2.05;;;;;;;;;;5092891;28;20047;-69
2024/03/03 10:41:34;;;;;;;2.17;2.08;;;;;;;;;;5091913;28;20028;-69
2024/03/03 10:44:01;;;;;;;1.77;1.67;;;;;;;;;;5097471;28;20527;-69
2024/03/03 10:46:27;;;;;;;1.75;1.65;;;;;;;;;;5089748;28;20505;-68
2024/03/03 10:48:55;;;;;;;3.38;1.80;;;;;;;;;;5077705;28;21111;-69
2024/03/03 10:51:21;;;;;;;1.85;1.75;;;;;;;;;;5093756;28;20039;-68
2024/03/03 10:53:54;;;;;;;1.73;1.63;;;;;;;;;;5096239;28;20539;-69
2024/03/03 10:56:21;;;;;;;1.75;1.65;;;;;;;;;;5104546;27;20499;-69
2024/03/03 10:58:48;;;;;;;1.70;1.60;;;;;;;;;;5101435;28;20520;-69
2024/03/03 11:01:19;;;;;;;1.90;1.70;;;;;;;;;;5094246;28;20024;-68
2024/03/03 11:03:48;;;;;;;2.38;2.17;;;;;;;;;;5101772;28;20488;-69
2024/03/03 11:06:15;;;;;;;1.73;1.63;;;;;;;;;;5081945;28;20027;-69
2024/03/03 11:08:49;;;;;;;2.10;1.92;;;;;;;;;;5083588;28;20581;-68
2024/03/03 11:11:16;;;;;;;2.33;2.13;;;;;;;;;;5078038;28;20046;-68
2024/03/03 11:13:43;;;;;;;1.83;1.73;;;;;;;;;;5101972;27;20646;-69
2024/03/03 11:16:10;;;;;;;2.05;1.95;;;;;;;;;;5093624;28;20016;-69
2024/03/03 11:18:39;;;;;;;1.90;1.80;;;;;;;;;;5098774;28;20468;-69
2024/03/03 11:21:09;;;;;;;1.63;1.52;;;;;;;;;;5092665;28;20019;-69
2024/03/03 11:24:01;;;;;;;3.78;2.50;;;;;;;;;;5096623;28;20567;-69
2024/03/03 11:26:51;;;;;;;1.65;1.55;;;;;;;;;;5089017;28;20039;-69
2024/03/03 11:29:21;;;;;;;2.45;1.92;;;;;;;;;;5083075;28;20035;-69
2024/03/03 11:31:48;;;;;;;2.28;1.95;;;;;;;;;;5077545;28;20545;-69
2024/03/03 11:34:15;;;;;;;1.92;1.73;;;;;;;;;;5091747;28;20039;-69
2024/03/03 11:36:41;;;;;;;1.63;1.52;;;;;;;;;;5100314;28;20509;-69
2024/03/03 11:39:14;;;;;;;1.70;1.60;;;;;;;;;;5089947;28;20020;-66
2024/03/03 11:41:41;;;;;;;1.88;1.70;;;;;;;;;;5097751;27;20030;-65
2024/03/03 11:44:26;;;;;;;2.67;1.88;;;;;;;;;;5097385;28;20062;-68
2024/03/03 11:46:53;;;;;;;1.88;1.70;;;;;;;;;;5096244;28;20555;-68
2024/03/03 11:49:30;;;;;;;3.22;2.20;;;;;;;;;;5098644;28;20059;-68
2024/03/03 11:51:57;;;;;;;1.88;1.77;;;;;;;;;;5093577;28;20106;-69
2024/03/03 11:54:41;;;;;;;2.40;2.15;;;;;;;;;;5078803;28;20151;-68
2024/03/03 11:57:09;;;;;;;1.95;1.73;;;;;;;;;;5076619;28;20437;-68
2024/03/03 11:59:39;;;;;;;3.75;1.85;;;;;;;;;;5096194;28;20031;-68
2024/03/03 12:02:06;;;;;;;2.00;1.75;;;;;;;;;;5094308;28;20051;-68
2024/03/03 12:04:32;;;;;;;2.00;1.80;;;;;;;;;;5096529;28;20503;-69
2024/03/03 12:06:58;;;;;;;2.38;2.17;;;;;;;;;;5085258;28;20032;-68
2024/03/03 12:09:24;;;;;;;3.90;1.70;;;;;;;;;;5101909;28;20032;-68
2024/03/03 12:11:52;;;;;;;1.77;1.67;;;;;;;;;;5094122;28;20038;-67
2024/03/03 12:14:18;;;;;;;2.08;1.90;;;;;;;;;;5078240;28;20490;-68
2024/03/03 12:16:44;;;;;;;1.80;1.70;;;;;;;;;;5099861;28;20055;-68
2024/03/03 12:19:11;;;;;;;2.50;2.20;;;;;;;;;;5099775;28;20154;-68
2024/03/03 12:21:37;;;;;;;1.95;1.83;;;;;;;;;;5101023;28;20023;-68
2024/03/03 12:24:15;;;;;;;6.28;4.38;;;;;;;;;;5089479;28;20039;-68
2024/03/03 12:26:41;;;;;;;3.47;2.50;;;;;;;;;;5081383;28;20035;-68
2024/03/03 12:29:07;;;;;;;5.60;2.38;;;;;;;;;;5099182;28;20026;-68
2024/03/03 12:31:33;;;;;;;6.07;2.40;;;;;;;;;;5100212;28;20392;-68
2024/03/03 12:34:00;;;;;;;4.85;3.15;;;;;;;;;;5071839;28;20047;-68
2024/03/03 12:36:26;;;;;;;5.88;4.07;;;;;;;;;;5099952;28;20051;-68
2024/03/03 12:38:53;;;;;;;3.65;2.83;;;;;;;;;;5072251;28;20030;-69
2024/03/03 12:41:20;;;;;;;2.80;2.00;;;;;;;;;;5084074;28;20038;-68
2024/03/03 12:43:47;;;;;;;2.13;1.92;;;;;;;;;;5100902;28;20077;-66
2024/03/03 12:46:13;;;;;;;1.90;1.80;;;;;;;;;;5100815;28;20028;-66
2024/03/03 12:48:39;;;;;;;1.80;1.70;;;;;;;;;;5106392;28;20032;-65
2024/03/03 12:51:06;;;;;;;1.70;1.60;;;;;;;;;;5112319;28;20032;-65
2024/03/03 12:53:32;;;;;;;2.53;1.70;;;;;;;;;;5093921;28;20077;-69
2024/03/03 12:56:15;;;;;;;3.25;2.50;;;;;;;;;;5104758;28;20028;-68
2024/03/03 12:58:43;;;;;;;1.75;1.65;;;;;;;;;;5112679;27;20034;-68
2024/03/03 13:01:10;;;;;;;7.13;1.80;;;;;;;;;;5108168;28;20513;-65
2024/03/03 13:03:42;;;;;;;5.03;3.38;;;;;;;;;;5105778;28;20485;-65
2024/03/03 13:06:13;;;;;;;3.45;2.83;;;;;;;;;;5084745;28;20122;-65
2024/03/03 13:08:40;;;;;;;7.97;3.70;;;;;;;;;;5102203;27;20020;-65
2024/03/03 13:11:09;;;;;;;2.85;2.15;;;;;;;;;;5105146;28;20496;-65
2024/03/03 13:13:35;;;;;;;10.00;3.50;;;;;;;;;;5081108;28;20031;-65
2024/03/03 13:16:02;;;;;;;3.08;2.50;;;;;;;;;;5087068;28;20030;-65
2024/03/03 13:18:28;;;;;;;1.85;1.75;;;;;;;;;;5104321;28;20463;-65
2024/03/03 13:20:54;;;;;;;4.50;2.50;;;;;;;;;;5103450;27;20098;-65
2024/03/03 13:23:21;;;;;;;3.38;2.55;;;;;;;;;;5084828;28;20047;-65
2024/03/03 13:25:47;;;;;;;2.92;1.80;;;;;;;;;;5102979;27;20522;-64
2024/03/03 13:28:14;;;;;;;2.25;2.05;;;;;;;;;;5083430;28;20040;-65
2024/03/03 13:30:41;;;;;;;14.63;6.43;;;;;;;;;;5104179;28;20027;-65
2024/03/03 13:33:08;;;;;;;8.77;4.10;;;;;;;;;;5099916;28;20032;-67
2024/03/03 13:35:34;;;;;;;4.60;3.40;;;;;;;;;;5100349;28;20057;-65
2024/03/03 13:38:00;;;;;;;7.20;4.22;;;;;;;;;;5100321;28;20515;-67
2024/03/03 13:40:26;;;;;;;4.00;2.50;;;;;;;;;;5104760;28;20028;-65
2024/03/03 13:42:53;;;;;;;2.20;1.98;;;;;;;;;;5078915;28;20475;-66
2024/03/03 13:45:19;;;;;;;2.72;1.98;;;;;;;;;;5095900;28;20031;-66
2024/03/03 13:47:45;;;;;;;2.47;2.00;;;;;;;;;;5079416;28;20028;-66
2024/03/03 13:50:11;;;;;;;1.70;1.60;;;;;;;;;;5094531;28;20039;-66
2024/03/03 13:52:38;;;;;;;2.88;2.47;;;;;;;;;;5102000;28;20523;-66
2024/03/03 13:55:05;;;;;;;1.75;1.63;;;;;;;;;;5094081;27;20040;-65
2024/03/03 13:57:31;;;;;;;1.80;1.70;;;;;;;;;;5098455;28;20380;-65
2024/03/03 13:59:58;;;;;;;4.07;2.50;;;;;;;;;;5093517;28;20123;-65
2024/03/03 14:02:24;;;;;;;2.13;1.88;;;;;;;;;;5097033;28;20433;-65
2024/03/03 14:04:50;;;;;;;3.13;2.13;;;;;;;;;;5078375;28;20043;-65
2024/03/03 14:07:17;;;;;;;3.60;2.30;;;;;;;;;;5077199;28;20045;-65
2024/03/03 14:09:43;;;;;;;3.13;2.83;;;;;;;;;;5080296;28;20562;-65
2024/03/03 14:12:09;;;;;;;3.42;2.20;;;;;;;;;;5097368;27;20102;-66
2024/03/03 14:14:36;;;;;;;2.95;2.13;;;;;;;;;;5079043;28;20077;-66
2024/03/03 14:17:02;;;;;;;3.17;2.50;;;;;;;;;;5090833;28;20036;-65
2024/03/03 14:19:29;;;;;;;2.20;2.00;;;;;;;;;;5096597;28;20490;-65
2024/03/03 14:21:55;;;;;;;3.00;2.25;;;;;;;;;;5095534;28;20027;-66
2024/03/03 14:24:22;;;;;;;3.28;2.03;;;;;;;;;;5102697;28;20039;-66
2024/03/03 14:26:48;;;;;;;2.15;1.92;;;;;;;;;;5095302;28;20057;-66
2024/03/03 14:29:15;;;;;;;3.13;2.30;;;;;;;;;;5090883;28;20089;-66
2024/03/03 14:31:41;;;;;;;3.20;2.13;;;;;;;;;;5080103;28;20480;-66
2024/03/03 14:34:07;;;;;;;3.30;2.10;;;;;;;;;;5098585;27;20085;-66
2024/03/03 14:36:33;;;;;;;2.25;2.05;;;;;;;;;;5098961;28;20096;-66
2024/03/03 14:38:59;;;;;;;1.70;1.60;;;;;;;;;;5096492;28;20027;-66
2024/03/03 14:41:26;;;;;;;3.40;1.73;;;;;;;;;;5080509;28;20504;-68